La Dolce Vita — WDG8843 — position and weather

sailwx.info

Track history (hours):
 
Tides and Currents Weather Stations Pressure Air Temp Water Temp Dewpoint Dewpoint Depression Visibility Wind Speed Wind Dir Waves Ship Positions

La Dolce Vita

Owner: Gilbertson Jr, Robert B, Seattle, WA. More information available from US FCC via Universal Licensing System and Coast Guard Vessel Documentation Center.

Last reported at 2017-Dec-10 23:07 UTC. Time now 2017-Dec-13 15:08 UTC.
Position N 47°41' W 122°24'.

Length 9 m.

Type: Pleasure craft. MMSI: 367581630.

Date/timePositionNaut miles runAvg speedWind from/ knotsBaromVisibWave heightAir tempDewpointWater temp
2017-Dec-10 23:07N 47°41' W 122°24'0 0.2
2017-Dec-10 23:00N 47°41' W 122°24'0 0.1
2017-Dec-10 22:27N 47°41' W 122°24'1 1.7
2017-Dec-10 22:00N 47°41' W 122°26'3 5.3
2017-Dec-10 21:30N 47°39' W 122°28'2 3.8
2017-Dec-10 21:00N 47°37' W 122°29'1 2.3
2017-Dec-10 20:30N 47°37' W 122°30'1 0.0
2017-Dec-10 00:24N 47°37' W 122°31'1 2.3
2017-Dec-10 00:00N 47°37' W 122°30'2 3.2
2017-Dec-09 23:30N 47°36' W 122°29'2 5.0
2017-Dec-09 23:01N 47°36' W 122°25'2 4.7
2017-Dec-09 22:30N 47°37' W 122°22'3 5.1
2017-Dec-09 22:00N 47°39' W 122°26'2 3.8
2017-Dec-09 21:30N 47°40' W 122°27'2 3.2
2017-Dec-09 21:00N 47°41' W 122°25'1 1.0
2017-Dec-09 20:29N 47°41' W 122°24'  
2017-Dec-01 19:21N 47°41' W 122°24'0 0.0
2017-Dec-01 18:45N 47°41' W 122°24'0 0.0
2017-Dec-01 18:24N 47°41' W 122°24'  
Track history (hours):
 
Tides and Currents Weather Stations Pressure Air Temp Water Temp Dewpoint Dewpoint Depression Visibility Wind Speed Wind Dir Waves Ship Positions

La Dolce Vita

Owner: Gilbertson Jr, Robert B, Seattle, WA. More information available from US FCC via Universal Licensing System and Coast Guard Vessel Documentation Center.

Last reported at 2017-Dec-10 23:07 UTC. Time now 2017-Dec-13 15:08 UTC.
Position N 47°41' W 122°24'.

Length 9 m.

Type: Pleasure craft. MMSI: 367581630.

Date/timePositionNaut miles runAvg speedWind from/ knotsBaromVisibWave heightAir tempDewpointWater temp
2017-Dec-10 23:07N 47°41' W 122°24'0 0.2
2017-Dec-10 23:00N 47°41' W 122°24'0 0.1
2017-Dec-10 22:27N 47°41' W 122°24'1 1.7
2017-Dec-10 22:00N 47°41' W 122°26'3 5.3
2017-Dec-10 21:30N 47°39' W 122°28'2 3.8
2017-Dec-10 21:00N 47°37' W 122°29'1 2.3
2017-Dec-10 20:30N 47°37' W 122°30'1 0.0
2017-Dec-10 00:24N 47°37' W 122°31'1 2.3
2017-Dec-10 00:00N 47°37' W 122°30'2 3.2
2017-Dec-09 23:30N 47°36' W 122°29'2 5.0
2017-Dec-09 23:01N 47°36' W 122°25'2 4.7
2017-Dec-09 22:30N 47°37' W 122°22'3 5.1
2017-Dec-09 22:00N 47°39' W 122°26'2 3.8
2017-Dec-09 21:30N 47°40' W 122°27'2 3.2
2017-Dec-09 21:00N 47°41' W 122°25'1 1.0
2017-Dec-09 20:29N 47°41' W 122°24'  
2017-Dec-01 19:21N 47°41' W 122°24'0 0.0
2017-Dec-01 18:45N 47°41' W 122°24'0 0.0
2017-Dec-01 18:24N 47°41' W 122°24'  

Dump ship's entire track history